sensor_id;sensor_type;location;lat;lon;timestamp;P1;durP1;ratioP1;P2;durP2;ratioP2
74543;SDS011;63016;55.030;38.710;2023-10-19T00:00:39;8.02;;;4.03;;
74543;SDS011;63016;55.030;38.710;2023-10-19T00:03:09;6.47;;;4.15;;
74543;SDS011;63016;55.030;38.710;2023-10-19T00:05:36;6.15;;;3.67;;
74543;SDS011;63016;55.030;38.710;2023-10-19T00:08:03;7.80;;;4.15;;
74543;SDS011;63016;55.030;38.710;2023-10-19T00:10:31;9.23;;;4.78;;
74543;SDS011;63016;55.030;38.710;2023-10-19T00:13:01;6.72;;;4.30;;
74543;SDS011;63016;55.030;38.710;2023-10-19T00:15:32;9.40;;;4.60;;
74543;SDS011;63016;55.030;38.710;2023-10-19T00:18:00;9.05;;;5.10;;
74543;SDS011;63016;55.030;38.710;2023-10-19T00:20:44;8.38;;;4.45;;
74543;SDS011;63016;55.030;38.710;2023-10-19T00:23:18;9.85;;;4.70;;
74543;SDS011;63016;55.030;38.710;2023-10-19T00:26:01;7.80;;;4.47;;
74543;SDS011;63016;55.030;38.710;2023-10-19T00:28:42;6.13;;;4.18;;
74543;SDS011;63016;55.030;38.710;2023-10-19T00:31:12;8.40;;;4.63;;
74543;SDS011;63016;55.030;38.710;2023-10-19T00:33:38;6.63;;;4.15;;
74543;SDS011;63016;55.030;38.710;2023-10-19T00:36:05;8.40;;;4.80;;
74543;SDS011;63016;55.030;38.710;2023-10-19T00:38:41;6.53;;;4.75;;
74543;SDS011;63016;55.030;38.710;2023-10-19T00:41:17;8.32;;;5.05;;
74543;SDS011;63016;55.030;38.710;2023-10-19T00:43:49;7.55;;;4.38;;
74543;SDS011;63016;55.030;38.710;2023-10-19T00:46:16;8.43;;;4.93;;
74543;SDS011;63016;55.030;38.710;2023-10-19T00:48:48;11.50;;;4.57;;
74543;SDS011;63016;55.030;38.710;2023-10-19T00:51:45;10.00;;;5.03;;
74543;SDS011;63016;55.030;38.710;2023-10-19T00:54:43;7.75;;;4.80;;
74543;SDS011;63016;55.030;38.710;2023-10-19T00:57:11;6.68;;;4.85;;
74543;SDS011;63016;55.030;38.710;2023-10-19T00:59:38;8.10;;;4.90;;
74543;SDS011;63016;55.030;38.710;2023-10-19T01:02:08;9.10;;;4.43;;
74543;SDS011;63016;55.030;38.710;2023-10-19T01:04:47;8.63;;;5.00;;
74543;SDS011;63016;55.030;38.710;2023-10-19T01:07:31;9.00;;;4.32;;
74543;SDS011;63016;55.030;38.710;2023-10-19T01:10:02;7.97;;;4.78;;
74543;SDS011;63016;55.030;38.710;2023-10-19T01:12:31;7.40;;;4.47;;
74543;SDS011;63016;55.030;38.710;2023-10-19T01:15:12;8.82;;;5.22;;
74543;SDS011;63016;55.030;38.710;2023-10-19T01:17:42;7.43;;;4.95;;
74543;SDS011;63016;55.030;38.710;2023-10-19T01:20:10;6.82;;;4.63;;
74543;SDS011;63016;55.030;38.710;2023-10-19T01:23:02;8.52;;;4.60;;
74543;SDS011;63016;55.030;38.710;2023-10-19T01:28:06;6.35;;;4.53;;
74543;SDS011;63016;55.030;38.710;2023-10-19T01:30:33;6.07;;;4.45;;
74543;SDS011;63016;55.030;38.710;2023-10-19T01:33:01;8.77;;;4.72;;
74543;SDS011;63016;55.030;38.710;2023-10-19T01:35:28;10.10;;;5.07;;
74543;SDS011;63016;55.030;38.710;2023-10-19T01:38:13;9.38;;;5.03;;
74543;SDS011;63016;55.030;38.710;2023-10-19T01:40:38;8.80;;;5.22;;
74543;SDS011;63016;55.030;38.710;2023-10-19T01:45:45;8.23;;;4.90;;
74543;SDS011;63016;55.030;38.710;2023-10-19T01:48:10;8.27;;;5.05;;
74543;SDS011;63016;55.030;38.710;2023-10-19T01:50:38;7.47;;;4.88;;
74543;SDS011;63016;55.030;38.710;2023-10-19T01:53:04;8.07;;;5.25;;
74543;SDS011;63016;55.030;38.710;2023-10-19T01:55:38;9.35;;;5.13;;
74543;SDS011;63016;55.030;38.710;2023-10-19T01:58:03;7.50;;;5.05;;
74543;SDS011;63016;55.030;38.710;2023-10-19T02:00:29;7.72;;;4.93;;
74543;SDS011;63016;55.030;38.710;2023-10-19T02:02:55;9.48;;;5.20;;
74543;SDS011;63016;55.030;38.710;2023-10-19T02:05:20;7.18;;;5.05;;
74543;SDS011;63016;55.030;38.710;2023-10-19T02:07:47;7.72;;;4.93;;
74543;SDS011;63016;55.030;38.710;2023-10-19T02:10:12;9.73;;;4.63;;
74543;SDS011;63016;55.030;38.710;2023-10-19T02:12:38;8.32;;;4.65;;
74543;SDS011;63016;55.030;38.710;2023-10-19T02:15:07;6.35;;;4.78;;
74543;SDS011;63016;55.030;38.710;2023-10-19T02:17:33;7.95;;;5.45;;
74543;SDS011;63016;55.030;38.710;2023-10-19T02:19:59;8.07;;;4.55;;
74543;SDS011;63016;55.030;38.710;2023-10-19T02:22:24;7.75;;;4.82;;
74543;SDS011;63016;55.030;38.710;2023-10-19T02:24:50;7.00;;;4.80;;
74543;SDS011;63016;55.030;38.710;2023-10-19T02:27:15;7.95;;;5.13;;
74543;SDS011;63016;55.030;38.710;2023-10-19T02:29:40;7.35;;;5.15;;
74543;SDS011;63016;55.030;38.710;2023-10-19T02:32:07;7.43;;;4.50;;
74543;SDS011;63016;55.030;38.710;2023-10-19T02:34:32;10.63;;;4.78;;
74543;SDS011;63016;55.030;38.710;2023-10-19T02:37:00;7.65;;;4.93;;
74543;SDS011;63016;55.030;38.710;2023-10-19T02:39:26;9.43;;;4.60;;
74543;SDS011;63016;55.030;38.710;2023-10-19T02:41:55;8.15;;;5.03;;
74543;SDS011;63016;55.030;38.710;2023-10-19T02:44:21;6.53;;;4.15;;
74543;SDS011;63016;55.030;38.710;2023-10-19T02:46:54;9.00;;;4.95;;
74543;SDS011;63016;55.030;38.710;2023-10-19T02:49:33;8.57;;;4.72;;
74543;SDS011;63016;55.030;38.710;2023-10-19T02:52:04;7.65;;;4.53;;
74543;SDS011;63016;55.030;38.710;2023-10-19T02:54:30;7.65;;;5.13;;
74543;SDS011;63016;55.030;38.710;2023-10-19T02:56:58;6.40;;;4.65;;
74543;SDS011;63016;55.030;38.710;2023-10-19T02:59:25;7.57;;;5.10;;
74543;SDS011;63016;55.030;38.710;2023-10-19T03:01:57;9.02;;;4.78;;
74543;SDS011;63016;55.030;38.710;2023-10-19T03:04:32;6.90;;;4.60;;
74543;SDS011;63016;55.030;38.710;2023-10-19T03:07:01;11.45;;;5.30;;
74543;SDS011;63016;55.030;38.710;2023-10-19T03:09:27;9.05;;;5.22;;
74543;SDS011;63016;55.030;38.710;2023-10-19T03:11:53;8.15;;;4.68;;
74543;SDS011;63016;55.030;38.710;2023-10-19T03:14:22;8.63;;;5.13;;
74543;SDS011;63016;55.030;38.710;2023-10-19T03:16:50;7.90;;;4.60;;
74543;SDS011;63016;55.030;38.710;2023-10-19T03:19:16;8.25;;;4.85;;
74543;SDS011;63016;55.030;38.710;2023-10-19T03:21:42;6.53;;;4.60;;
74543;SDS011;63016;55.030;38.710;2023-10-19T03:24:08;10.18;;;5.25;;
74543;SDS011;63016;55.030;38.710;2023-10-19T03:26:51;8.43;;;5.03;;
74543;SDS011;63016;55.030;38.710;2023-10-19T03:29:19;7.63;;;4.90;;
74543;SDS011;63016;55.030;38.710;2023-10-19T03:31:55;6.43;;;4.63;;
74543;SDS011;63016;55.030;38.710;2023-10-19T03:34:21;9.23;;;4.93;;
74543;SDS011;63016;55.030;38.710;2023-10-19T03:36:49;7.53;;;4.90;;
74543;SDS011;63016;55.030;38.710;2023-10-19T03:39:15;8.13;;;5.20;;
74543;SDS011;63016;55.030;38.710;2023-10-19T03:41:43;10.05;;;5.35;;
74543;SDS011;63016;55.030;38.710;2023-10-19T03:44:12;7.35;;;4.75;;
74543;SDS011;63016;55.030;38.710;2023-10-19T03:46:49;7.43;;;4.82;;
74543;SDS011;63016;55.030;38.710;2023-10-19T03:49:19;7.70;;;5.25;;
74543;SDS011;63016;55.030;38.710;2023-10-19T03:51:45;10.00;;;4.82;;
74543;SDS011;63016;55.030;38.710;2023-10-19T03:54:24;8.57;;;4.90;;
74543;SDS011;63016;55.030;38.710;2023-10-19T03:56:50;8.80;;;5.18;;
74543;SDS011;63016;55.030;38.710;2023-10-19T03:59:20;7.80;;;5.10;;
74543;SDS011;63016;55.030;38.710;2023-10-19T04:01:46;7.95;;;5.18;;
74543;SDS011;63016;55.030;38.710;2023-10-19T04:04:12;7.90;;;4.85;;
74543;SDS011;63016;55.030;38.710;2023-10-19T04:06:39;10.50;;;5.07;;
74543;SDS011;63016;55.030;38.710;2023-10-19T04:09:19;9.32;;;5.90;;
74543;SDS011;63016;55.030;38.710;2023-10-19T04:11:44;9.55;;;5.15;;
74543;SDS011;63016;55.030;38.710;2023-10-19T04:14:16;8.90;;;5.30;;
74543;SDS011;63016;55.030;38.710;2023-10-19T04:16:43;9.10;;;5.13;;
74543;SDS011;63016;55.030;38.710;2023-10-19T04:19:13;9.77;;;5.72;;
74543;SDS011;63016;55.030;38.710;2023-10-19T04:21:39;9.68;;;5.60;;
74543;SDS011;63016;55.030;38.710;2023-10-19T04:24:09;9.65;;;5.78;;
74543;SDS011;63016;55.030;38.710;2023-10-19T04:26:35;7.65;;;5.32;;
74543;SDS011;63016;55.030;38.710;2023-10-19T04:29:05;10.38;;;5.95;;
74543;SDS011;63016;55.030;38.710;2023-10-19T04:34:06;9.70;;;5.72;;
74543;SDS011;63016;55.030;38.710;2023-10-19T04:36:34;9.13;;;5.65;;
74543;SDS011;63016;55.030;38.710;2023-10-19T04:39:00;9.25;;;5.68;;
74543;SDS011;63016;55.030;38.710;2023-10-19T04:41:26;8.77;;;5.70;;
74543;SDS011;63016;55.030;38.710;2023-10-19T04:43:54;10.57;;;6.03;;
74543;SDS011;63016;55.030;38.710;2023-10-19T04:46:23;10.77;;;6.50;;
74543;SDS011;63016;55.030;38.710;2023-10-19T04:48:49;8.82;;;5.55;;
74543;SDS011;63016;55.030;38.710;2023-10-19T04:51:14;10.43;;;5.85;;
74543;SDS011;63016;55.030;38.710;2023-10-19T04:53:40;11.50;;;6.63;;
74543;SDS011;63016;55.030;38.710;2023-10-19T04:56:07;11.70;;;6.07;;
74543;SDS011;63016;55.030;38.710;2023-10-19T04:58:37;10.48;;;5.72;;
74543;SDS011;63016;55.030;38.710;2023-10-19T05:01:03;12.15;;;6.43;;
74543;SDS011;63016;55.030;38.710;2023-10-19T05:03:30;11.32;;;6.32;;
74543;SDS011;63016;55.030;38.710;2023-10-19T05:05:56;10.38;;;6.28;;
74543;SDS011;63016;55.030;38.710;2023-10-19T05:08:22;8.95;;;6.43;;
74543;SDS011;63016;55.030;38.710;2023-10-19T05:10:51;10.50;;;6.20;;
74543;SDS011;63016;55.030;38.710;2023-10-19T05:13:20;12.35;;;6.53;;
74543;SDS011;63016;55.030;38.710;2023-10-19T05:15:50;11.65;;;6.30;;
74543;SDS011;63016;55.030;38.710;2023-10-19T05:18:15;13.27;;;6.32;;
74543;SDS011;63016;55.030;38.710;2023-10-19T05:20:41;11.02;;;6.82;;
74543;SDS011;63016;55.030;38.710;2023-10-19T05:23:07;11.55;;;6.85;;
74543;SDS011;63016;55.030;38.710;2023-10-19T05:25:34;11.45;;;6.70;;
74543;SDS011;63016;55.030;38.710;2023-10-19T05:28:01;11.18;;;6.38;;
74543;SDS011;63016;55.030;38.710;2023-10-19T05:30:28;9.60;;;5.93;;
74543;SDS011;63016;55.030;38.710;2023-10-19T05:32:55;12.07;;;7.07;;
74543;SDS011;63016;55.030;38.710;2023-10-19T05:35:20;10.15;;;6.63;;
74543;SDS011;63016;55.030;38.710;2023-10-19T05:37:48;12.43;;;7.00;;
74543;SDS011;63016;55.030;38.710;2023-10-19T05:40:14;10.70;;;6.55;;
74543;SDS011;63016;55.030;38.710;2023-10-19T05:42:41;10.77;;;6.70;;
74543;SDS011;63016;55.030;38.710;2023-10-19T05:45:06;10.90;;;6.53;;
74543;SDS011;63016;55.030;38.710;2023-10-19T05:47:33;12.32;;;7.28;;
74543;SDS011;63016;55.030;38.710;2023-10-19T05:49:58;9.57;;;6.22;;
74543;SDS011;63016;55.030;38.710;2023-10-19T05:52:24;12.10;;;6.88;;
74543;SDS011;63016;55.030;38.710;2023-10-19T05:54:49;12.32;;;6.90;;
74543;SDS011;63016;55.030;38.710;2023-10-19T05:57:14;10.20;;;6.18;;
74543;SDS011;63016;55.030;38.710;2023-10-19T05:59:40;8.77;;;5.88;;
74543;SDS011;63016;55.030;38.710;2023-10-19T06:02:09;9.70;;;6.43;;
74543;SDS011;63016;55.030;38.710;2023-10-19T06:04:34;9.70;;;6.43;;
74543;SDS011;63016;55.030;38.710;2023-10-19T06:07:00;11.88;;;6.82;;
74543;SDS011;63016;55.030;38.710;2023-10-19T06:09:25;10.80;;;6.13;;
74543;SDS011;63016;55.030;38.710;2023-10-19T06:11:57;11.38;;;6.38;;
74543;SDS011;63016;55.030;38.710;2023-10-19T06:14:22;11.63;;;6.97;;
74543;SDS011;63016;55.030;38.710;2023-10-19T06:16:48;9.68;;;6.28;;
74543;SDS011;63016;55.030;38.710;2023-10-19T06:19:13;9.50;;;5.90;;
74543;SDS011;63016;55.030;38.710;2023-10-19T06:21:41;11.02;;;6.57;;
74543;SDS011;63016;55.030;38.710;2023-10-19T06:24:07;10.32;;;6.35;;
74543;SDS011;63016;55.030;38.710;2023-10-19T06:26:32;11.10;;;6.38;;
74543;SDS011;63016;55.030;38.710;2023-10-19T06:28:58;12.68;;;7.03;;
74543;SDS011;63016;55.030;38.710;2023-10-19T06:31:24;11.52;;;6.82;;
74543;SDS011;63016;55.030;38.710;2023-10-19T06:33:51;11.63;;;6.30;;
74543;SDS011;63016;55.030;38.710;2023-10-19T06:36:17;12.40;;;6.57;;
74543;SDS011;63016;55.030;38.710;2023-10-19T06:38:44;10.90;;;6.57;;
74543;SDS011;63016;55.030;38.710;2023-10-19T06:41:10;11.70;;;6.18;;
74543;SDS011;63016;55.030;38.710;2023-10-19T06:43:38;13.07;;;6.85;;
74543;SDS011;63016;55.030;38.710;2023-10-19T06:46:04;14.20;;;6.60;;
74543;SDS011;63016;55.030;38.710;2023-10-19T06:48:30;14.02;;;6.95;;
74543;SDS011;63016;55.030;38.710;2023-10-19T06:50:57;10.25;;;6.43;;
74543;SDS011;63016;55.030;38.710;2023-10-19T06:53:22;12.52;;;6.95;;
74543;SDS011;63016;55.030;38.710;2023-10-19T06:55:48;9.70;;;6.45;;
74543;SDS011;63016;55.030;38.710;2023-10-19T06:58:13;10.75;;;6.60;;
74543;SDS011;63016;55.030;38.710;2023-10-19T07:00:44;10.30;;;5.82;;
74543;SDS011;63016;55.030;38.710;2023-10-19T07:03:10;11.25;;;6.82;;
74543;SDS011;63016;55.030;38.710;2023-10-19T07:05:36;12.07;;;6.82;;
74543;SDS011;63016;55.030;38.710;2023-10-19T07:08:02;10.63;;;7.10;;
74543;SDS011;63016;55.030;38.710;2023-10-19T07:10:31;10.98;;;6.20;;
74543;SDS011;63016;55.030;38.710;2023-10-19T07:12:59;12.48;;;6.80;;
74543;SDS011;63016;55.030;38.710;2023-10-19T07:15:25;13.15;;;6.75;;
74543;SDS011;63016;55.030;38.710;2023-10-19T07:17:52;9.73;;;6.30;;
74543;SDS011;63016;55.030;38.710;2023-10-19T07:20:19;9.02;;;6.07;;
74543;SDS011;63016;55.030;38.710;2023-10-19T07:22:52;10.32;;;5.80;;
74543;SDS011;63016;55.030;38.710;2023-10-19T07:25:21;10.38;;;6.43;;
74543;SDS011;63016;55.030;38.710;2023-10-19T07:27:48;11.38;;;6.38;;
74543;SDS011;63016;55.030;38.710;2023-10-19T07:30:15;10.75;;;6.70;;
74543;SDS011;63016;55.030;38.710;2023-10-19T07:32:45;11.15;;;6.32;;
74543;SDS011;63016;55.030;38.710;2023-10-19T07:35:11;12.35;;;6.53;;
74543;SDS011;63016;55.030;38.710;2023-10-19T07:37:37;10.80;;;6.35;;
74543;SDS011;63016;55.030;38.710;2023-10-19T07:40:03;12.05;;;6.68;;
74543;SDS011;63016;55.030;38.710;2023-10-19T07:42:30;10.23;;;5.97;;
74543;SDS011;63016;55.030;38.710;2023-10-19T07:44:57;11.75;;;6.35;;
74543;SDS011;63016;55.030;38.710;2023-10-19T07:47:24;10.60;;;6.60;;
74543;SDS011;63016;55.030;38.710;2023-10-19T07:49:50;12.55;;;6.88;;
74543;SDS011;63016;55.030;38.710;2023-10-19T07:52:17;11.65;;;6.78;;
74543;SDS011;63016;55.030;38.710;2023-10-19T07:54:42;11.07;;;6.93;;
74543;SDS011;63016;55.030;38.710;2023-10-19T07:57:08;13.30;;;6.85;;
74543;SDS011;63016;55.030;38.710;2023-10-19T07:59:34;14.00;;;7.07;;
74543;SDS011;63016;55.030;38.710;2023-10-19T08:02:00;10.88;;;6.30;;
74543;SDS011;63016;55.030;38.710;2023-10-19T08:04:29;13.32;;;7.22;;
74543;SDS011;63016;55.030;38.710;2023-10-19T08:06:56;11.15;;;6.88;;
74543;SDS011;63016;55.030;38.710;2023-10-19T08:09:22;14.23;;;6.97;;
74543;SDS011;63016;55.030;38.710;2023-10-19T08:11:48;13.27;;;6.80;;
74543;SDS011;63016;55.030;38.710;2023-10-19T08:14:14;8.95;;;6.25;;
74543;SDS011;63016;55.030;38.710;2023-10-19T08:16:40;10.40;;;6.35;;
74543;SDS011;63016;55.030;38.710;2023-10-19T08:19:09;10.00;;;5.95;;
74543;SDS011;63016;55.030;38.710;2023-10-19T08:21:34;10.35;;;6.38;;
74543;SDS011;63016;55.030;38.710;2023-10-19T08:24:00;9.27;;;5.25;;
74543;SDS011;63016;55.030;38.710;2023-10-19T08:26:29;11.40;;;6.18;;
74543;SDS011;63016;55.030;38.710;2023-10-19T08:28:55;8.18;;;5.88;;
74543;SDS011;63016;55.030;38.710;2023-10-19T08:31:24;10.98;;;5.88;;
74543;SDS011;63016;55.030;38.710;2023-10-19T08:33:49;10.30;;;5.30;;
74543;SDS011;63016;55.030;38.710;2023-10-19T08:36:17;11.80;;;6.03;;
74543;SDS011;63016;55.030;38.710;2023-10-19T08:38:44;11.95;;;5.45;;
74543;SDS011;63016;55.030;38.710;2023-10-19T08:41:14;8.00;;;5.22;;
74543;SDS011;63016;55.030;38.710;2023-10-19T08:43:40;8.93;;;4.90;;
74543;SDS011;63016;55.030;38.710;2023-10-19T08:46:06;8.50;;;5.15;;
74543;SDS011;63016;55.030;38.710;2023-10-19T08:48:33;9.93;;;5.25;;
74543;SDS011;63016;55.030;38.710;2023-10-19T08:51:01;7.72;;;4.82;;
74543;SDS011;63016;55.030;38.710;2023-10-19T08:53:31;8.35;;;5.03;;
74543;SDS011;63016;55.030;38.710;2023-10-19T08:56:04;7.65;;;4.63;;
74543;SDS011;63016;55.030;38.710;2023-10-19T08:58:31;8.65;;;4.53;;
74543;SDS011;63016;55.030;38.710;2023-10-19T09:00:57;7.53;;;4.60;;
74543;SDS011;63016;55.030;38.710;2023-10-19T09:03:23;8.45;;;4.53;;
74543;SDS011;63016;55.030;38.710;2023-10-19T09:05:49;10.60;;;4.20;;
74543;SDS011;63016;55.030;38.710;2023-10-19T09:08:19;5.32;;;4.00;;
74543;SDS011;63016;55.030;38.710;2023-10-19T09:10:47;7.20;;;4.23;;
74543;SDS011;63016;55.030;38.710;2023-10-19T09:13:17;6.53;;;3.83;;
74543;SDS011;63016;55.030;38.710;2023-10-19T09:15:47;8.30;;;4.28;;
74543;SDS011;63016;55.030;38.710;2023-10-19T09:18:21;6.13;;;4.00;;
74543;SDS011;63016;55.030;38.710;2023-10-19T09:20:50;6.22;;;3.72;;
74543;SDS011;63016;55.030;38.710;2023-10-19T09:23:18;4.93;;;3.28;;
74543;SDS011;63016;55.030;38.710;2023-10-19T09:25:46;7.68;;;3.47;;
74543;SDS011;63016;55.030;38.710;2023-10-19T09:28:12;5.80;;;3.08;;
74543;SDS011;63016;55.030;38.710;2023-10-19T09:30:39;4.22;;;3.20;;
74543;SDS011;63016;55.030;38.710;2023-10-19T09:33:05;5.18;;;3.20;;
74543;SDS011;63016;55.030;38.710;2023-10-19T09:35:32;6.38;;;3.70;;
74543;SDS011;63016;55.030;38.710;2023-10-19T09:37:59;5.28;;;3.30;;
74543;SDS011;63016;55.030;38.710;2023-10-19T09:40:26;5.38;;;3.38;;
74543;SDS011;63016;55.030;38.710;2023-10-19T09:42:55;5.55;;;3.28;;
74543;SDS011;63016;55.030;38.710;2023-10-19T09:45:23;4.53;;;3.08;;
74543;SDS011;63016;55.030;38.710;2023-10-19T09:47:55;6.68;;;3.42;;
74543;SDS011;63016;55.030;38.710;2023-10-19T09:50:21;5.70;;;3.83;;
74543;SDS011;63016;55.030;38.710;2023-10-19T09:52:47;7.93;;;3.33;;
74543;SDS011;63016;55.030;38.710;2023-10-19T09:55:17;8.52;;;3.20;;
74543;SDS011;63016;55.030;38.710;2023-10-19T10:00:18;6.03;;;3.38;;
74543;SDS011;63016;55.030;38.710;2023-10-19T10:02:52;4.63;;;3.30;;
74543;SDS011;63016;55.030;38.710;2023-10-19T10:10:42;6.85;;;3.50;;
74543;SDS011;63016;55.030;38.710;2023-10-19T10:15:49;4.03;;;2.75;;
74543;SDS011;63016;55.030;38.710;2023-10-19T10:18:16;4.88;;;2.92;;
74543;SDS011;63016;55.030;38.710;2023-10-19T10:20:42;6.65;;;2.88;;
74543;SDS011;63016;55.030;38.710;2023-10-19T10:23:18;3.78;;;3.10;;
74543;SDS011;63016;55.030;38.710;2023-10-19T10:25:49;3.88;;;2.83;;
74543;SDS011;63016;55.030;38.710;2023-10-19T10:28:19;3.15;;;2.72;;
74543;SDS011;63016;55.030;38.710;2023-10-19T10:33:43;3.25;;;2.22;;
74543;SDS011;63016;55.030;38.710;2023-10-19T10:36:16;3.47;;;2.15;;
74543;SDS011;63016;55.030;38.710;2023-10-19T10:38:44;3.67;;;2.30;;
74543;SDS011;63016;55.030;38.710;2023-10-19T10:41:10;5.43;;;2.20;;
74543;SDS011;63016;55.030;38.710;2023-10-19T10:43:52;3.35;;;2.20;;
74543;SDS011;63016;55.030;38.710;2023-10-19T10:46:22;3.10;;;2.00;;
74543;SDS011;63016;55.030;38.710;2023-10-19T10:48:49;2.13;;;1.60;;
74543;SDS011;63016;55.030;38.710;2023-10-19T10:53:42;1.98;;;1.60;;
74543;SDS011;63016;55.030;38.710;2023-10-19T10:56:08;2.58;;;1.40;;
74543;SDS011;63016;55.030;38.710;2023-10-19T10:58:33;2.42;;;1.10;;
74543;SDS011;63016;55.030;38.710;2023-10-19T11:00:59;1.30;;;1.08;;
74543;SDS011;63016;55.030;38.710;2023-10-19T11:03:25;1.02;;;0.90;;
74543;SDS011;63016;55.030;38.710;2023-10-19T11:05:55;1.77;;;0.90;;
74543;SDS011;63016;55.030;38.710;2023-10-19T11:08:23;1.35;;;0.98;;
74543;SDS011;63016;55.030;38.710;2023-10-19T11:10:49;1.40;;;0.95;;
74543;SDS011;63016;55.030;38.710;2023-10-19T11:13:22;1.55;;;0.88;;
74543;SDS011;63016;55.030;38.710;2023-10-19T11:15:49;1.35;;;0.80;;
74543;SDS011;63016;55.030;38.710;2023-10-19T11:21:14;1.20;;;0.85;;
74543;SDS011;63016;55.030;38.710;2023-10-19T11:23:44;1.80;;;1.00;;
74543;SDS011;63016;55.030;38.710;2023-10-19T11:26:11;1.00;;;0.80;;
74543;SDS011;63016;55.030;38.710;2023-10-19T11:28:39;2.50;;;0.80;;
74543;SDS011;63016;55.030;38.710;2023-10-19T11:33:45;0.80;;;0.77;;
74543;SDS011;63016;55.030;38.710;2023-10-19T11:36:13;1.67;;;0.88;;
74543;SDS011;63016;55.030;38.710;2023-10-19T11:38:43;1.00;;;0.80;;
74543;SDS011;63016;55.030;38.710;2023-10-19T11:41:12;2.58;;;0.80;;
74543;SDS011;63016;55.030;38.710;2023-10-19T11:43:40;0.88;;;0.80;;
74543;SDS011;63016;55.030;38.710;2023-10-19T11:46:07;1.02;;;0.70;;
74543;SDS011;63016;55.030;38.710;2023-10-19T11:48:34;2.42;;;0.75;;
74543;SDS011;63016;55.030;38.710;2023-10-19T11:51:01;1.15;;;0.77;;
74543;SDS011;63016;55.030;38.710;2023-10-19T11:53:33;0.98;;;0.68;;
74543;SDS011;63016;55.030;38.710;2023-10-19T11:56:03;1.58;;;0.70;;
74543;SDS011;63016;55.030;38.710;2023-10-19T11:58:30;3.25;;;0.80;;
74543;SDS011;63016;55.030;38.710;2023-10-19T12:01:00;2.10;;;0.70;;
74543;SDS011;63016;55.030;38.710;2023-10-19T12:03:28;0.75;;;0.60;;
74543;SDS011;63016;55.030;38.710;2023-10-19T12:05:53;1.10;;;0.68;;
74543;SDS011;63016;55.030;38.710;2023-10-19T12:08:20;0.57;;;0.57;;
74543;SDS011;63016;55.030;38.710;2023-10-19T12:10:45;0.80;;;0.70;;
74543;SDS011;63016;55.030;38.710;2023-10-19T12:13:11;1.92;;;0.70;;
74543;SDS011;63016;55.030;38.710;2023-10-19T12:15:37;1.55;;;0.80;;
74543;SDS011;63016;55.030;38.710;2023-10-19T12:18:02;0.80;;;0.70;;
74543;SDS011;63016;55.030;38.710;2023-10-19T12:20:28;2.10;;;0.80;;
74543;SDS011;63016;55.030;38.710;2023-10-19T12:22:56;0.52;;;0.50;;
74543;SDS011;63016;55.030;38.710;2023-10-19T12:25:24;0.70;;;0.60;;
74543;SDS011;63016;55.030;38.710;2023-10-19T12:28:00;1.88;;;0.70;;
74543;SDS011;63016;55.030;38.710;2023-10-19T12:30:25;1.27;;;0.75;;
74543;SDS011;63016;55.030;38.710;2023-10-19T12:32:57;0.45;;;0.43;;
74543;SDS011;63016;55.030;38.710;2023-10-19T12:35:25;0.82;;;0.50;;
74543;SDS011;63016;55.030;38.710;2023-10-19T12:38:07;0.95;;;0.50;;
74543;SDS011;63016;55.030;38.710;2023-10-19T12:40:40;0.60;;;0.52;;
74543;SDS011;63016;55.030;38.710;2023-10-19T12:43:08;0.68;;;0.60;;
74543;SDS011;63016;55.030;38.710;2023-10-19T12:45:35;0.82;;;0.50;;
74543;SDS011;63016;55.030;38.710;2023-10-19T12:48:05;0.73;;;0.55;;
74543;SDS011;63016;55.030;38.710;2023-10-19T12:50:31;0.52;;;0.52;;
74543;SDS011;63016;55.030;38.710;2023-10-19T12:52:59;0.50;;;0.50;;
74543;SDS011;63016;55.030;38.710;2023-10-19T12:55:25;1.05;;;0.65;;
74543;SDS011;63016;55.030;38.710;2023-10-19T12:57:56;2.28;;;0.60;;
74543;SDS011;63016;55.030;38.710;2023-10-19T13:00:22;0.95;;;0.55;;
74543;SDS011;63016;55.030;38.710;2023-10-19T13:02:49;0.65;;;0.50;;
74543;SDS011;63016;55.030;38.710;2023-10-19T13:05:15;0.70;;;0.60;;
74543;SDS011;63016;55.030;38.710;2023-10-19T13:07:43;1.20;;;0.50;;
74543;SDS011;63016;55.030;38.710;2023-10-19T13:10:09;0.40;;;0.40;;
74543;SDS011;63016;55.030;38.710;2023-10-19T13:12:36;0.40;;;0.40;;
74543;SDS011;63016;55.030;38.710;2023-10-19T13:15:03;0.68;;;0.50;;
74543;SDS011;63016;55.030;38.710;2023-10-19T13:17:32;0.68;;;0.50;;
74543;SDS011;63016;55.030;38.710;2023-10-19T13:19:58;0.63;;;0.40;;
74543;SDS011;63016;55.030;38.710;2023-10-19T13:22:26;0.70;;;0.55;;
74543;SDS011;63016;55.030;38.710;2023-10-19T13:24:52;1.35;;;0.70;;
74543;SDS011;63016;55.030;38.710;2023-10-19T13:27:17;0.50;;;0.50;;
74543;SDS011;63016;55.030;38.710;2023-10-19T13:29:44;0.60;;;0.50;;
74543;SDS011;63016;55.030;38.710;2023-10-19T13:32:12;0.60;;;0.50;;
74543;SDS011;63016;55.030;38.710;2023-10-19T13:34:37;0.60;;;0.40;;
74543;SDS011;63016;55.030;38.710;2023-10-19T13:37:05;0.50;;;0.43;;
74543;SDS011;63016;55.030;38.710;2023-10-19T13:39:33;1.75;;;0.30;;
74543;SDS011;63016;55.030;38.710;2023-10-19T13:41:58;0.70;;;0.50;;
74543;SDS011;63016;55.030;38.710;2023-10-19T13:44:24;0.45;;;0.40;;
74543;SDS011;63016;55.030;38.710;2023-10-19T13:46:51;0.75;;;0.50;;
74543;SDS011;63016;55.030;38.710;2023-10-19T13:49:19;0.47;;;0.47;;
74543;SDS011;63016;55.030;38.710;2023-10-19T13:51:47;0.65;;;0.40;;
74543;SDS011;63016;55.030;38.710;2023-10-19T13:54:13;0.47;;;0.47;;
74543;SDS011;63016;55.030;38.710;2023-10-19T13:56:39;3.42;;;0.60;;
74543;SDS011;63016;55.030;38.710;2023-10-19T13:59:04;1.67;;;0.43;;
74543;SDS011;63016;55.030;38.710;2023-10-19T14:01:30;0.63;;;0.50;;
74543;SDS011;63016;55.030;38.710;2023-10-19T14:03:56;0.60;;;0.50;;
74543;SDS011;63016;55.030;38.710;2023-10-19T14:06:21;0.40;;;0.40;;
74543;SDS011;63016;55.030;38.710;2023-10-19T14:08:49;1.08;;;0.40;;
74543;SDS011;63016;55.030;38.710;2023-10-19T14:11:14;1.92;;;0.38;;
74543;SDS011;63016;55.030;38.710;2023-10-19T14:13:40;0.70;;;0.40;;
74543;SDS011;63016;55.030;38.710;2023-10-19T14:16:07;1.77;;;0.60;;
74543;SDS011;63016;55.030;38.710;2023-10-19T14:18:34;1.85;;;0.60;;
74543;SDS011;63016;55.030;38.710;2023-10-19T14:21:00;1.77;;;0.52;;
74543;SDS011;63016;55.030;38.710;2023-10-19T14:23:26;3.38;;;0.70;;
74543;SDS011;63016;55.030;38.710;2023-10-19T14:25:53;0.68;;;0.43;;
74543;SDS011;63016;55.030;38.710;2023-10-19T14:28:18;2.25;;;0.60;;
74543;SDS011;63016;55.030;38.710;2023-10-19T14:30:43;0.55;;;0.43;;
74543;SDS011;63016;55.030;38.710;2023-10-19T14:33:10;1.25;;;0.50;;
74543;SDS011;63016;55.030;38.710;2023-10-19T14:35:36;0.60;;;0.35;;
74543;SDS011;63016;55.030;38.710;2023-10-19T14:38:06;0.40;;;0.30;;
74543;SDS011;63016;55.030;38.710;2023-10-19T14:40:34;0.85;;;0.30;;
74543;SDS011;63016;55.030;38.710;2023-10-19T14:43:00;1.58;;;0.45;;
74543;SDS011;63016;55.030;38.710;2023-10-19T14:45:27;0.70;;;0.40;;
74543;SDS011;63016;55.030;38.710;2023-10-19T14:47:56;0.28;;;0.25;;
74543;SDS011;63016;55.030;38.710;2023-10-19T14:50:23;0.30;;;0.30;;
74543;SDS011;63016;55.030;38.710;2023-10-19T14:52:50;0.75;;;0.20;;
74543;SDS011;63016;55.030;38.710;2023-10-19T14:55:17;1.38;;;0.30;;
74543;SDS011;63016;55.030;38.710;2023-10-19T14:57:43;1.60;;;0.35;;
74543;SDS011;63016;55.030;38.710;2023-10-19T15:00:14;0.50;;;0.30;;
74543;SDS011;63016;55.030;38.710;2023-10-19T15:02:46;1.02;;;0.20;;
74543;SDS011;63016;55.030;38.710;2023-10-19T15:05:16;0.75;;;0.50;;